Time;durP1;ratioP1;P1;durP2;ratioP2;P2;SDS_P1;SDS_P2;PMS_P1;PMS_P2;Temp;Humidity;BMP_temperature;BMP_pressure;BME280_temperature;BME280_humidity;BME280_pressure;Samples;Min_cycle;Max_cycle;Signal;HPM_P1;HPM_P2
2021/12/01 00:01:11;;;;;;;2.30;1.17;;;;;;;;;;5097757;28;20020;-73
2021/12/01 00:03:39;;;;;;;2.30;0.95;;;;;;;;;;5097321;28;20066;-73
2021/12/01 00:06:05;;;;;;;1.48;0.82;;;;;;;;;;5097734;28;20024;-73
2021/12/01 00:08:32;;;;;;;1.45;0.90;;;;;;;;;;5115895;28;20073;-74
2021/12/01 00:10:58;;;;;;;1.83;0.90;;;;;;;;;;5097378;28;20028;-74
2021/12/01 00:13:25;;;;;;;1.55;0.80;;;;;;;;;;5116075;28;20031;-72
2021/12/01 00:15:52;;;;;;;1.63;0.95;;;;;;;;;;5097386;28;20042;-73
2021/12/01 00:18:18;;;;;;;1.73;0.95;;;;;;;;;;5097363;28;20063;-72
2021/12/01 00:20:46;;;;;;;1.80;0.80;;;;;;;;;;5097203;28;20024;-75
2021/12/01 00:23:12;;;;;;;1.20;0.65;;;;;;;;;;5097119;28;20445;-73
2021/12/01 00:25:39;;;;;;;1.25;0.70;;;;;;;;;;5097267;28;20028;-75
2021/12/01 00:28:07;;;;;;;1.42;0.90;;;;;;;;;;5097027;28;20027;-72
2021/12/01 00:30:33;;;;;;;1.55;0.90;;;;;;;;;;5097025;28;20361;-72
2021/12/01 00:32:59;;;;;;;2.53;0.80;;;;;;;;;;5096993;28;20052;-72
2021/12/01 00:35:27;;;;;;;1.85;0.70;;;;;;;;;;5097056;28;20458;-72
2021/12/01 00:37:53;;;;;;;1.08;0.60;;;;;;;;;;5115192;28;20049;-73
2021/12/01 00:40:19;;;;;;;0.98;0.60;;;;;;;;;;5097019;28;20027;-72
2021/12/01 00:42:46;;;;;;;1.55;0.70;;;;;;;;;;5080037;28;20387;-72
2021/12/01 00:45:21;;;;;;;1.98;0.85;;;;;;;;;;5096721;28;20061;-72
2021/12/01 00:47:52;;;;;;;1.73;0.80;;;;;;;;;;5095945;28;20028;-72
2021/12/01 00:50:22;;;;;;;1.23;0.60;;;;;;;;;;5096691;28;20033;-72
2021/12/01 00:52:48;;;;;;;1.55;0.80;;;;;;;;;;5096631;28;20016;-72
2021/12/01 00:55:14;;;;;;;0.90;0.50;;;;;;;;;;5096632;28;20532;-72
2021/12/01 00:57:41;;;;;;;1.17;0.47;;;;;;;;;;5096511;28;20161;-72
2021/12/01 01:00:08;;;;;;;1.83;0.70;;;;;;;;;;5096489;28;20055;-72
2021/12/01 01:02:34;;;;;;;1.42;0.63;;;;;;;;;;5096376;28;20027;-71
2021/12/01 01:05:00;;;;;;;1.45;0.70;;;;;;;;;;5096284;28;20047;-72
2021/12/01 01:07:27;;;;;;;1.48;0.68;;;;;;;;;;5096384;28;20024;-73
2021/12/01 01:09:53;;;;;;;1.67;0.57;;;;;;;;;;5096284;28;20031;-72
2021/12/01 01:18:02;;;;;;;1.25;0.57;;;;;;;;;;5114277;28;20034;-73
2021/12/01 01:20:28;;;;;;;0.63;0.40;;;;;;;;;;5096043;28;20023;-72
2021/12/01 01:22:54;;;;;;;1.38;0.60;;;;;;;;;;5095958;28;20031;-73
2021/12/01 01:25:20;;;;;;;1.45;0.50;;;;;;;;;;5096028;28;20062;-73
2021/12/01 01:27:47;;;;;;;0.85;0.45;;;;;;;;;;5095940;28;20024;-73
2021/12/01 01:30:13;;;;;;;1.42;0.43;;;;;;;;;;5114207;28;20483;-73
2021/12/01 01:32:39;;;;;;;0.77;0.30;;;;;;;;;;5114236;28;20429;-72
2021/12/01 01:35:06;;;;;;;0.80;0.40;;;;;;;;;;5095922;28;20053;-73
2021/12/01 01:37:33;;;;;;;0.82;0.40;;;;;;;;;;5095866;28;20027;-73
2021/12/01 01:39:59;;;;;;;1.50;0.60;;;;;;;;;;5095843;28;20030;-73
2021/12/01 01:42:25;;;;;;;0.98;0.50;;;;;;;;;;5095846;28;20022;-73
2021/12/01 01:44:51;;;;;;;1.35;0.60;;;;;;;;;;5095668;28;20059;-74
2021/12/01 01:47:17;;;;;;;1.70;0.50;;;;;;;;;;5095783;28;20027;-73
2021/12/01 01:52:15;;;;;;;2.20;0.68;;;;;;;;;;5097318;28;20034;-73
2021/12/01 01:54:42;;;;;;;1.33;0.80;;;;;;;;;;5114175;28;20449;-73
2021/12/01 01:57:08;;;;;;;1.80;0.90;;;;;;;;;;5095681;28;20024;-73
2021/12/01 01:59:34;;;;;;;1.35;0.75;;;;;;;;;;5095464;28;20403;-73
2021/12/01 02:02:01;;;;;;;1.38;0.65;;;;;;;;;;5095557;28;20070;-73
2021/12/01 02:04:32;;;;;;;1.15;0.65;;;;;;;;;;5095415;28;20059;-73
2021/12/01 02:06:59;;;;;;;2.63;0.90;;;;;;;;;;5114005;28;20125;-73
2021/12/01 02:09:25;;;;;;;1.98;0.80;;;;;;;;;;5095602;28;20036;-73
2021/12/01 02:11:55;;;;;;;1.40;0.80;;;;;;;;;;5113954;28;20414;-73
2021/12/01 02:14:22;;;;;;;2.25;0.80;;;;;;;;;;5095474;28;20464;-72
2021/12/01 02:16:49;;;;;;;1.30;0.60;;;;;;;;;;5113561;28;20020;-73
2021/12/01 02:19:15;;;;;;;1.10;0.60;;;;;;;;;;5095546;28;20031;-74
2021/12/01 02:21:41;;;;;;;1.17;0.60;;;;;;;;;;5113664;28;20019;-73
2021/12/01 02:24:10;;;;;;;1.38;0.80;;;;;;;;;;5095259;28;20027;-73
2021/12/01 02:26:38;;;;;;;1.48;0.60;;;;;;;;;;5095228;28;20038;-73
2021/12/01 02:29:05;;;;;;;1.33;0.70;;;;;;;;;;5095309;28;20020;-73
2021/12/01 02:31:36;;;;;;;1.40;0.57;;;;;;;;;;5095337;28;20115;-73
2021/12/01 02:34:03;;;;;;;1.40;0.77;;;;;;;;;;5095321;28;20020;-73
2021/12/01 02:36:30;;;;;;;0.82;0.55;;;;;;;;;;5113532;28;20463;-73
2021/12/01 02:38:56;;;;;;;2.85;0.80;;;;;;;;;;5095164;28;20024;-73
2021/12/01 02:41:30;;;;;;;1.42;0.63;;;;;;;;;;5113431;28;20505;-74
2021/12/01 02:43:56;;;;;;;2.65;0.50;;;;;;;;;;5095166;28;20032;-73
2021/12/01 02:46:22;;;;;;;1.08;0.57;;;;;;;;;;5113367;28;20139;-73
2021/12/01 02:48:49;;;;;;;1.75;0.60;;;;;;;;;;5113122;28;20028;-73
2021/12/01 02:51:17;;;;;;;0.90;0.57;;;;;;;;;;5113404;28;20467;-73
2021/12/01 02:53:43;;;;;;;1.17;0.60;;;;;;;;;;5095096;28;20028;-73
2021/12/01 02:56:10;;;;;;;1.50;0.70;;;;;;;;;;5095150;28;20020;-73
2021/12/01 02:58:40;;;;;;;1.50;0.90;;;;;;;;;;5094923;28;20024;-73
2021/12/01 03:01:12;;;;;;;1.45;0.80;;;;;;;;;;5095053;28;20030;-73
2021/12/01 03:03:39;;;;;;;1.15;0.60;;;;;;;;;;5113012;28;20044;-72
2021/12/01 03:06:05;;;;;;;1.70;0.57;;;;;;;;;;5095000;28;20024;-73
2021/12/01 03:08:32;;;;;;;0.90;0.50;;;;;;;;;;5094965;28;20023;-73
2021/12/01 03:10:58;;;;;;;2.17;0.52;;;;;;;;;;5095609;28;20020;-73
2021/12/01 03:13:24;;;;;;;1.63;0.60;;;;;;;;;;5117180;28;20372;-72
2021/12/01 03:15:51;;;;;;;1.02;0.60;;;;;;;;;;5098527;28;20081;-73
2021/12/01 03:18:17;;;;;;;1.92;0.60;;;;;;;;;;5098619;28;20032;-73
2021/12/01 03:20:45;;;;;;;0.75;0.40;;;;;;;;;;5098392;28;20081;-73
2021/12/01 03:23:11;;;;;;;0.80;0.40;;;;;;;;;;5098404;28;20052;-72
2021/12/01 03:25:37;;;;;;;0.70;0.47;;;;;;;;;;5098400;28;20031;-73
2021/12/01 03:28:03;;;;;;;0.63;0.47;;;;;;;;;;5098262;28;20064;-75
2021/12/01 03:30:33;;;;;;;1.17;0.40;;;;;;;;;;5098455;28;20038;-73
2021/12/01 03:33:00;;;;;;;0.70;0.40;;;;;;;;;;5098180;28;20023;-73
2021/12/01 03:35:26;;;;;;;0.50;0.32;;;;;;;;;;5098170;28;20023;-73
2021/12/01 03:37:52;;;;;;;0.70;0.40;;;;;;;;;;5098193;28;20028;-72
2021/12/01 03:40:18;;;;;;;1.58;0.43;;;;;;;;;;5098280;28;20118;-72
2021/12/01 03:42:44;;;;;;;1.10;0.40;;;;;;;;;;5097948;28;20429;-73
2021/12/01 03:45:11;;;;;;;0.80;0.40;;;;;;;;;;5116226;28;20047;-73
2021/12/01 03:47:38;;;;;;;1.08;0.40;;;;;;;;;;5097938;28;20020;-73
2021/12/01 03:50:04;;;;;;;0.68;0.40;;;;;;;;;;5098219;28;20036;-72
2021/12/01 03:52:31;;;;;;;1.77;0.43;;;;;;;;;;5097781;28;20043;-72
2021/12/01 03:54:57;;;;;;;0.80;0.38;;;;;;;;;;5097679;28;20387;-72
2021/12/01 03:57:23;;;;;;;1.23;0.60;;;;;;;;;;5115922;28;20535;-72
2021/12/01 03:59:50;;;;;;;1.08;0.50;;;;;;;;;;5116213;28;20096;-73
2021/12/01 04:02:16;;;;;;;0.88;0.43;;;;;;;;;;5115974;28;20476;-73
2021/12/01 04:04:42;;;;;;;1.13;0.40;;;;;;;;;;5097295;28;20050;-72
2021/12/01 04:07:08;;;;;;;0.93;0.50;;;;;;;;;;5098210;28;20034;-73
2021/12/01 04:09:35;;;;;;;0.73;0.43;;;;;;;;;;5115739;28;20024;-73
2021/12/01 04:12:02;;;;;;;1.77;0.60;;;;;;;;;;5097508;28;20088;-73
2021/12/01 04:14:28;;;;;;;1.30;0.65;;;;;;;;;;5097303;28;20110;-73
2021/12/01 04:16:54;;;;;;;0.80;0.50;;;;;;;;;;5115482;28;20034;-72
2021/12/01 04:19:21;;;;;;;1.25;0.65;;;;;;;;;;5097905;28;20030;-74
2021/12/01 04:21:47;;;;;;;0.90;0.50;;;;;;;;;;5080457;28;20027;-74
2021/12/01 04:24:13;;;;;;;1.10;0.50;;;;;;;;;;5097223;28;20479;-73
2021/12/01 04:26:39;;;;;;;1.17;0.50;;;;;;;;;;5097118;28;20391;-73
2021/12/01 04:29:06;;;;;;;2.25;0.70;;;;;;;;;;5115351;28;20415;-73
2021/12/01 04:31:33;;;;;;;2.90;0.80;;;;;;;;;;5115426;28;20070;-73
2021/12/01 04:34:00;;;;;;;1.25;0.65;;;;;;;;;;5115357;28;20379;-72
2021/12/01 04:36:31;;;;;;;1.02;0.50;;;;;;;;;;5097093;28;20486;-72
2021/12/01 04:38:57;;;;;;;1.55;0.45;;;;;;;;;;5096942;28;20118;-73
2021/12/01 04:41:23;;;;;;;1.70;0.80;;;;;;;;;;5115543;28;20409;-73
2021/12/01 04:43:52;;;;;;;5.88;2.05;;;;;;;;;;5096780;28;20529;-73
2021/12/01 04:46:20;;;;;;;4.82;1.35;;;;;;;;;;5096723;28;20501;-72
2021/12/01 04:48:47;;;;;;;1.70;0.68;;;;;;;;;;5096639;28;20047;-73
2021/12/01 04:51:13;;;;;;;3.80;0.55;;;;;;;;;;5096756;28;20365;-73
2021/12/01 04:53:39;;;;;;;1.63;0.60;;;;;;;;;;5096749;28;20051;-72
2021/12/01 04:56:06;;;;;;;1.40;0.70;;;;;;;;;;5096648;28;20035;-72
2021/12/01 04:58:34;;;;;;;1.05;0.50;;;;;;;;;;5096506;28;20024;-73
2021/12/01 05:01:01;;;;;;;1.42;0.60;;;;;;;;;;5096525;28;20034;-73
2021/12/01 05:03:29;;;;;;;1.38;0.60;;;;;;;;;;5114762;28;20384;-73
2021/12/01 05:05:56;;;;;;;1.10;0.50;;;;;;;;;;5096458;28;20024;-73
2021/12/01 05:08:23;;;;;;;0.90;0.50;;;;;;;;;;5114659;28;20482;-72
2021/12/01 05:10:49;;;;;;;0.88;0.45;;;;;;;;;;5096222;28;20023;-73
2021/12/01 05:13:15;;;;;;;0.80;0.45;;;;;;;;;;5114623;28;20019;-73
2021/12/01 05:15:41;;;;;;;1.48;0.70;;;;;;;;;;5096183;28;20030;-73
2021/12/01 05:18:08;;;;;;;1.60;0.40;;;;;;;;;;5096244;28;20023;-73
2021/12/01 05:20:35;;;;;;;1.00;0.50;;;;;;;;;;5096116;28;20032;-73
2021/12/01 05:23:01;;;;;;;1.00;0.50;;;;;;;;;;5096126;28;20042;-72
2021/12/01 05:25:27;;;;;;;1.25;0.60;;;;;;;;;;5114293;28;20422;-73
2021/12/01 05:27:54;;;;;;;5.13;0.90;;;;;;;;;;5095968;28;20023;-74
2021/12/01 05:30:20;;;;;;;2.28;1.25;;;;;;;;;;5096051;28;20031;-73
2021/12/01 05:32:47;;;;;;;2.20;1.05;;;;;;;;;;5095965;28;20102;-73
2021/12/01 05:35:13;;;;;;;2.05;1.10;;;;;;;;;;5095489;28;20143;-73
2021/12/01 05:37:39;;;;;;;2.00;1.13;;;;;;;;;;5095957;28;20030;-72
2021/12/01 05:40:06;;;;;;;2.47;1.33;;;;;;;;;;5114066;28;20030;-73
2021/12/01 05:42:32;;;;;;;2.15;1.08;;;;;;;;;;5095638;28;20539;-73
2021/12/01 05:44:59;;;;;;;2.00;1.00;;;;;;;;;;5095496;28;20510;-73
2021/12/01 05:47:25;;;;;;;2.03;0.90;;;;;;;;;;5095655;28;20034;-73
2021/12/01 05:49:51;;;;;;;2.67;1.40;;;;;;;;;;5095668;28;20023;-72
2021/12/01 05:52:17;;;;;;;2.38;1.02;;;;;;;;;;5095559;28;20384;-73
2021/12/01 05:54:46;;;;;;;3.83;1.50;;;;;;;;;;5095503;28;20016;-73
2021/12/01 05:57:12;;;;;;;1.80;1.05;;;;;;;;;;5095537;28;20399;-73
2021/12/01 05:59:38;;;;;;;1.77;0.80;;;;;;;;;;5078779;28;20020;-73
2021/12/01 06:02:04;;;;;;;3.65;2.05;;;;;;;;;;5095550;28;20021;-73
2021/12/01 06:04:31;;;;;;;3.38;2.22;;;;;;;;;;5113438;28;20052;-74
2021/12/01 06:06:57;;;;;;;5.00;2.72;;;;;;;;;;5095354;28;20383;-73
2021/12/01 06:09:23;;;;;;;2.30;1.40;;;;;;;;;;5095518;28;20088;-73
2021/12/01 06:11:51;;;;;;;2.78;1.88;;;;;;;;;;5113727;28;20051;-73
2021/12/01 06:14:18;;;;;;;2.88;1.77;;;;;;;;;;5095484;28;20019;-73
2021/12/01 06:16:44;;;;;;;2.40;1.30;;;;;;;;;;5095332;28;20028;-72
2021/12/01 06:19:10;;;;;;;2.10;1.20;;;;;;;;;;5095551;28;20030;-72
2021/12/01 06:21:37;;;;;;;2.22;1.38;;;;;;;;;;5113561;28;20108;-72
2021/12/01 06:24:03;;;;;;;2.65;1.52;;;;;;;;;;5095315;28;20019;-73
2021/12/01 06:26:30;;;;;;;2.90;1.27;;;;;;;;;;5113812;28;20387;-73
2021/12/01 06:28:56;;;;;;;2.63;1.25;;;;;;;;;;5113698;28;20019;-73
2021/12/01 06:31:22;;;;;;;8.07;4.30;;;;;;;;;;5113813;28;20053;-73
2021/12/01 06:33:48;;;;;;;10.20;5.13;;;;;;;;;;5095258;28;20543;-74
2021/12/01 06:36:14;;;;;;;11.48;5.13;;;;;;;;;;5095249;28;20091;-74
2021/12/01 06:38:41;;;;;;;6.22;2.60;;;;;;;;;;5095147;28;20491;-74
2021/12/01 06:41:08;;;;;;;3.78;1.80;;;;;;;;;;5095153;28;20038;-73
2021/12/01 06:43:35;;;;;;;1.92;1.00;;;;;;;;;;5113328;28;20383;-74
2021/12/01 06:46:01;;;;;;;1.42;0.80;;;;;;;;;;5095930;28;20027;-75
2021/12/01 06:48:27;;;;;;;2.60;1.13;;;;;;;;;;5099046;28;20023;-73
2021/12/01 06:50:54;;;;;;;2.67;1.20;;;;;;;;;;5098869;28;20497;-74
2021/12/01 06:53:20;;;;;;;8.25;2.20;;;;;;;;;;5098898;28;20019;-74
2021/12/01 06:55:46;;;;;;;5.43;2.30;;;;;;;;;;5098892;28;20396;-75
2021/12/01 06:58:13;;;;;;;9.35;2.60;;;;;;;;;;5098899;28;20019;-74
2021/12/01 07:00:39;;;;;;;6.63;2.92;;;;;;;;;;5116974;28;20069;-74
2021/12/01 07:03:05;;;;;;;8.48;3.80;;;;;;;;;;5099444;28;20060;-74
2021/12/01 07:05:31;;;;;;;20.50;11.90;;;;;;;;;;5098646;28;20447;-74
2021/12/01 07:07:58;;;;;;;12.98;6.70;;;;;;;;;;5098710;28;20116;-73
2021/12/01 07:10:24;;;;;;;17.58;8.80;;;;;;;;;;5117053;28;20023;-74
2021/12/01 07:12:50;;;;;;;26.17;12.93;;;;;;;;;;5098349;28;20020;-74
2021/12/01 07:15:16;;;;;;;23.65;12.40;;;;;;;;;;5098487;28;20027;-74
2021/12/01 07:17:42;;;;;;;20.35;11.10;;;;;;;;;;5098477;28;20110;-74
2021/12/01 07:20:09;;;;;;;18.40;8.05;;;;;;;;;;5098422;28;20024;-74
2021/12/01 07:22:35;;;;;;;9.43;5.00;;;;;;;;;;5098293;28;20035;-74
2021/12/01 07:25:02;;;;;;;5.65;2.90;;;;;;;;;;5098289;28;20046;-74
2021/12/01 07:27:28;;;;;;;6.72;3.10;;;;;;;;;;5098292;28;20015;-73
2021/12/01 07:29:54;;;;;;;4.80;2.60;;;;;;;;;;5098237;28;20035;-73
2021/12/01 07:32:20;;;;;;;6.80;3.05;;;;;;;;;;5116553;28;20039;-73
2021/12/01 07:34:47;;;;;;;5.35;2.95;;;;;;;;;;5098065;28;20035;-73
2021/12/01 07:37:14;;;;;;;7.80;3.45;;;;;;;;;;5098064;28;20016;-73
2021/12/01 07:39:40;;;;;;;6.80;3.80;;;;;;;;;;5098096;28;20070;-73
2021/12/01 07:42:07;;;;;;;7.50;3.33;;;;;;;;;;5097999;28;20065;-73
2021/12/01 07:44:34;;;;;;;5.50;3.30;;;;;;;;;;5097881;28;20042;-73
2021/12/01 07:47:00;;;;;;;7.22;3.53;;;;;;;;;;5097951;28;20030;-73
2021/12/01 07:49:27;;;;;;;4.05;2.50;;;;;;;;;;5097885;28;20085;-73
2021/12/01 07:51:53;;;;;;;4.25;2.33;;;;;;;;;;5116107;28;20430;-73
2021/12/01 07:54:19;;;;;;;3.42;1.85;;;;;;;;;;5116043;28;20456;-73
2021/12/01 07:56:45;;;;;;;4.05;2.30;;;;;;;;;;5115554;28;20034;-73
2021/12/01 07:59:15;;;;;;;5.60;2.33;;;;;;;;;;5097780;28;20024;-73
2021/12/01 08:01:42;;;;;;;4.00;2.40;;;;;;;;;;5097700;28;20084;-73
2021/12/01 08:04:08;;;;;;;5.00;2.20;;;;;;;;;;5094016;28;20050;-73
2021/12/01 08:06:35;;;;;;;4.00;2.30;;;;;;;;;;5094183;28;20024;-73
2021/12/01 08:09:01;;;;;;;3.60;2.00;;;;;;;;;;5094919;28;20027;-73
2021/12/01 08:11:28;;;;;;;2.55;1.63;;;;;;;;;;5094167;28;20119;-73
2021/12/01 08:13:54;;;;;;;4.28;2.25;;;;;;;;;;5094090;28;20031;-73
2021/12/01 08:16:20;;;;;;;6.13;2.78;;;;;;;;;;5094120;28;20039;-73
2021/12/01 08:18:51;;;;;;;6.45;3.15;;;;;;;;;;5095156;28;20032;-73
2021/12/01 08:21:18;;;;;;;6.30;3.10;;;;;;;;;;5094073;28;20082;-73
2021/12/01 08:23:44;;;;;;;6.80;3.63;;;;;;;;;;5093867;28;20085;-73
2021/12/01 08:26:10;;;;;;;5.65;3.00;;;;;;;;;;5093921;28;20070;-73
2021/12/01 08:28:36;;;;;;;5.88;2.40;;;;;;;;;;5093680;28;20024;-73
2021/12/01 08:31:03;;;;;;;6.95;2.50;;;;;;;;;;5093831;28;20032;-73
2021/12/01 08:33:29;;;;;;;5.00;2.25;;;;;;;;;;5093733;28;20020;-73
2021/12/01 08:35:55;;;;;;;5.47;2.50;;;;;;;;;;5095310;28;20073;-73
2021/12/01 08:38:21;;;;;;;6.35;2.70;;;;;;;;;;5093632;28;20020;-73
2021/12/01 08:40:47;;;;;;;5.22;3.38;;;;;;;;;;5093370;28;20089;-73
2021/12/01 08:43:14;;;;;;;6.47;3.10;;;;;;;;;;5092969;28;20122;-74
2021/12/01 08:45:40;;;;;;;4.60;2.80;;;;;;;;;;5090362;28;20032;-73
2021/12/01 08:48:06;;;;;;;4.18;1.75;;;;;;;;;;5084088;28;20035;-73
2021/12/01 08:50:33;;;;;;;2.03;1.25;;;;;;;;;;5094155;28;20058;-73
2021/12/01 08:53:00;;;;;;;2.65;1.42;;;;;;;;;;5094337;28;20525;-72
2021/12/01 08:55:26;;;;;;;9.10;3.05;;;;;;;;;;5093151;28;20031;-73
2021/12/01 08:57:53;;;;;;;12.30;4.78;;;;;;;;;;5094544;28;20047;-73
2021/12/01 09:00:20;;;;;;;10.23;4.72;;;;;;;;;;5094179;28;20456;-72
2021/12/01 09:02:47;;;;;;;7.88;4.03;;;;;;;;;;5093829;28;20028;-72
2021/12/01 09:05:13;;;;;;;16.13;7.07;;;;;;;;;;5111658;28;20082;-72
2021/12/01 09:07:40;;;;;;;37.60;14.90;;;;;;;;;;5096305;28;20116;-72
2021/12/01 09:10:06;;;;;;;19.42;8.45;;;;;;;;;;5095609;28;20024;-73
2021/12/01 09:12:32;;;;;;;8.00;4.28;;;;;;;;;;5114471;28;20024;-73
2021/12/01 09:14:59;;;;;;;8.75;4.95;;;;;;;;;;5096158;28;20044;-73
2021/12/01 09:17:25;;;;;;;8.82;4.60;;;;;;;;;;5096190;28;20024;-73
2021/12/01 09:19:52;;;;;;;9.07;5.10;;;;;;;;;;5096501;28;20425;-73
2021/12/01 09:22:19;;;;;;;11.73;6.03;;;;;;;;;;5115140;28;20030;-72
2021/12/01 09:24:46;;;;;;;9.95;6.32;;;;;;;;;;5096387;28;20042;-72
2021/12/01 09:27:12;;;;;;;14.32;6.78;;;;;;;;;;5111964;28;20031;-72
2021/12/01 09:29:38;;;;;;;15.43;7.57;;;;;;;;;;5100383;28;20472;-72
2021/12/01 09:32:05;;;;;;;14.07;6.90;;;;;;;;;;5093795;28;20031;-72
2021/12/01 09:34:31;;;;;;;12.73;6.18;;;;;;;;;;5083265;28;20039;-72
2021/12/01 09:36:57;;;;;;;6.88;2.70;;;;;;;;;;5082891;28;20035;-71
2021/12/01 09:39:24;;;;;;;4.85;2.15;;;;;;;;;;5094239;28;20050;-72
2021/12/01 09:41:51;;;;;;;4.32;1.90;;;;;;;;;;5093603;28;20016;-73
2021/12/01 09:44:17;;;;;;;3.85;1.90;;;;;;;;;;5075265;28;20077;-71
2021/12/01 09:46:44;;;;;;;7.43;2.60;;;;;;;;;;5093576;28;20024;-72
2021/12/01 09:49:13;;;;;;;4.60;2.22;;;;;;;;;;5075396;28;20030;-72
2021/12/01 09:51:43;;;;;;;5.47;2.17;;;;;;;;;;5093498;28;20036;-72
2021/12/01 09:54:09;;;;;;;7.22;4.20;;;;;;;;;;5093716;28;20434;-72
2021/12/01 09:56:35;;;;;;;12.75;7.38;;;;;;;;;;5093106;28;20032;-71
2021/12/01 09:59:01;;;;;;;15.02;7.78;;;;;;;;;;5093340;28;20036;-71
2021/12/01 10:01:28;;;;;;;13.63;8.40;;;;;;;;;;5074718;28;20039;-72
2021/12/01 10:03:54;;;;;;;10.38;5.65;;;;;;;;;;5093197;28;20055;-72
2021/12/01 10:06:24;;;;;;;11.38;7.35;;;;;;;;;;5093802;28;20372;-71
2021/12/01 10:08:56;;;;;;;10.73;6.78;;;;;;;;;;5093202;28;20109;-72
2021/12/01 10:11:26;;;;;;;9.30;5.22;;;;;;;;;;5093833;28;20024;-72
2021/12/01 10:13:59;;;;;;;8.90;5.20;;;;;;;;;;5093692;28;20502;-72
2021/12/01 10:16:27;;;;;;;3.97;2.13;;;;;;;;;;5093135;28;20549;-72
2021/12/01 10:18:56;;;;;;;2.65;1.48;;;;;;;;;;5075027;28;20492;-72
2021/12/01 10:21:42;;;;;;;1.77;1.05;;;;;;;;;;5078484;28;20024;-72
2021/12/01 10:24:13;;;;;;;1.67;0.80;;;;;;;;;;5079135;28;20032;-73
2021/12/01 10:26:42;;;;;;;1.60;0.80;;;;;;;;;;5079122;28;20056;-72
2021/12/01 10:29:19;;;;;;;1.38;0.60;;;;;;;;;;5113062;28;20023;-72
2021/12/01 10:31:48;;;;;;;10.20;5.45;;;;;;;;;;5117721;28;20023;-72
2021/12/01 10:34:15;;;;;;;11.30;5.32;;;;;;;;;;5117400;28;20027;-72
2021/12/01 10:36:41;;;;;;;11.48;5.93;;;;;;;;;;5098699;28;20024;-72
2021/12/01 10:39:07;;;;;;;11.07;6.28;;;;;;;;;;5116619;28;20406;-73
2021/12/01 10:41:36;;;;;;;11.95;6.72;;;;;;;;;;5099023;28;20028;-72
2021/12/01 10:44:08;;;;;;;13.60;7.07;;;;;;;;;;5099065;28;20146;-72
2021/12/01 10:46:42;;;;;;;12.35;6.20;;;;;;;;;;5099121;28;20063;-73
2021/12/01 10:49:08;;;;;;;13.15;7.57;;;;;;;;;;5117358;28;20023;-72
2021/12/01 10:51:36;;;;;;;11.35;7.20;;;;;;;;;;5098872;28;20028;-72
2021/12/01 10:54:03;;;;;;;13.73;9.50;;;;;;;;;;5117414;28;20016;-71
2021/12/01 10:56:29;;;;;;;13.38;8.18;;;;;;;;;;5098768;28;20053;-71
2021/12/01 10:58:55;;;;;;;10.20;7.13;;;;;;;;;;5098787;28;20031;-73
2021/12/01 11:01:23;;;;;;;9.95;7.03;;;;;;;;;;5099397;28;20035;-72
2021/12/01 11:03:50;;;;;;;9.27;6.30;;;;;;;;;;5116753;28;20151;-73
2021/12/01 11:06:21;;;;;;;10.93;7.93;;;;;;;;;;5117067;28;20433;-73
2021/12/01 11:08:48;;;;;;;11.20;8.23;;;;;;;;;;5098574;28;20032;-73
2021/12/01 11:11:16;;;;;;;10.18;6.82;;;;;;;;;;5098646;28;20032;-74
2021/12/01 11:13:44;;;;;;;7.65;5.68;;;;;;;;;;5098548;28;20024;-73
2021/12/01 11:16:11;;;;;;;8.00;4.88;;;;;;;;;;5116814;28;20095;-73
2021/12/01 11:18:41;;;;;;;13.25;9.52;;;;;;;;;;5098331;28;20495;-72
2021/12/01 11:21:14;;;;;;;8.82;5.20;;;;;;;;;;5116690;28;20024;-73
2021/12/01 11:23:42;;;;;;;5.88;4.35;;;;;;;;;;5098360;28;20020;-73
2021/12/01 11:26:29;;;;;;;7.50;5.13;;;;;;;;;;5116827;28;20016;-73
2021/12/01 11:28:59;;;;;;;7.60;5.43;;;;;;;;;;5097952;28;20488;-73
2021/12/01 11:31:26;;;;;;;8.85;5.88;;;;;;;;;;5116374;28;20380;-73
2021/12/01 11:33:57;;;;;;;11.85;5.68;;;;;;;;;;5116356;28;20107;-73
2021/12/01 11:36:30;;;;;;;8.57;5.47;;;;;;;;;;5116598;28;20024;-72
2021/12/01 11:38:57;;;;;;;10.32;6.38;;;;;;;;;;5116397;28;20556;-71
2021/12/01 11:41:25;;;;;;;7.32;4.60;;;;;;;;;;5097799;28;20166;-73
2021/12/01 11:43:52;;;;;;;8.43;3.70;;;;;;;;;;5116223;28;20121;-74
2021/12/01 11:46:18;;;;;;;8.43;3.88;;;;;;;;;;5097940;28;20396;-72
2021/12/01 11:48:49;;;;;;;7.55;4.10;;;;;;;;;;5115746;28;20027;-73
2021/12/01 11:51:23;;;;;;;7.15;4.35;;;;;;;;;;5116013;28;20044;-73
2021/12/01 11:53:55;;;;;;;6.03;3.83;;;;;;;;;;5097922;28;20491;-74
2021/12/01 11:56:28;;;;;;;7.43;3.97;;;;;;;;;;5097790;28;20024;-74
2021/12/01 11:59:13;;;;;;;5.57;3.72;;;;;;;;;;5115465;28;20028;-73
2021/12/01 12:01:43;;;;;;;6.75;4.13;;;;;;;;;;5115471;28;20065;-73
2021/12/01 12:04:09;;;;;;;6.97;4.00;;;;;;;;;;5115683;28;20051;-74
2021/12/01 12:06:37;;;;;;;6.72;4.00;;;;;;;;;;5097463;28;20024;-73
2021/12/01 12:09:10;;;;;;;8.18;4.68;;;;;;;;;;5115806;28;20020;-71
2021/12/01 12:11:38;;;;;;;9.77;4.85;;;;;;;;;;5097404;28;20480;-70
2021/12/01 12:14:08;;;;;;;10.90;5.55;;;;;;;;;;5115755;28;20024;-70
2021/12/01 12:16:35;;;;;;;10.00;4.90;;;;;;;;;;5097153;28;20051;-69
2021/12/01 12:19:01;;;;;;;14.90;7.35;;;;;;;;;;5115653;28;20027;-70
2021/12/01 12:24:09;;;;;;;14.38;7.32;;;;;;;;;;5116078;28;20500;-71
2021/12/01 12:26:37;;;;;;;10.95;6.72;;;;;;;;;;5097207;28;20024;-70
2021/12/01 12:29:08;;;;;;;9.30;5.72;;;;;;;;;;5096856;28;20027;-70
2021/12/01 12:31:34;;;;;;;8.65;5.00;;;;;;;;;;5097100;28;20033;-72
2021/12/01 12:34:03;;;;;;;9.77;5.45;;;;;;;;;;5097035;28;20020;-70
2021/12/01 12:36:36;;;;;;;12.98;6.20;;;;;;;;;;5097070;28;20027;-69
2021/12/01 12:39:04;;;;;;;14.27;7.85;;;;;;;;;;5096871;28;20392;-69
2021/12/01 12:41:31;;;;;;;52.42;22.92;;;;;;;;;;5096810;28;20030;-69
2021/12/01 12:44:17;;;;;;;87.90;33.10;;;;;;;;;;5095689;28;20084;-69
2021/12/01 12:47:00;;;;;;;113.22;41.97;;;;;;;;;;5096603;28;20024;-70
2021/12/01 12:49:36;;;;;;;161.05;52.67;;;;;;;;;;5096782;28;20558;-71
2021/12/01 12:52:21;;;;;;;121.68;42.13;;;;;;;;;;5096723;28;20115;-71
2021/12/01 12:54:47;;;;;;;80.80;32.35;;;;;;;;;;5114892;28;20047;-70
2021/12/01 12:57:15;;;;;;;44.70;19.95;;;;;;;;;;5096595;28;20028;-70
2021/12/01 12:59:41;;;;;;;27.85;15.38;;;;;;;;;;5096603;28;20024;-70
2021/12/01 13:02:09;;;;;;;24.77;13.60;;;;;;;;;;5114742;28;20094;-69
2021/12/01 13:04:48;;;;;;;17.33;10.45;;;;;;;;;;5092711;28;20045;-69
2021/12/01 13:07:34;;;;;;;12.13;6.95;;;;;;;;;;5094428;28;20507;-69
2021/12/01 13:10:03;;;;;;;18.08;8.32;;;;;;;;;;5093031;28;20039;-70
2021/12/01 13:12:30;;;;;;;25.80;11.95;;;;;;;;;;5092995;28;20085;-70
2021/12/01 13:14:56;;;;;;;32.40;11.48;;;;;;;;;;5094102;28;20089;-70
2021/12/01 13:17:22;;;;;;;24.55;8.82;;;;;;;;;;5094196;28;20030;-70
2021/12/01 13:19:48;;;;;;;16.95;7.40;;;;;;;;;;5075969;28;20488;-69
2021/12/01 13:22:14;;;;;;;12.35;5.10;;;;;;;;;;5092613;28;20039;-69
2021/12/01 13:24:40;;;;;;;9.70;4.47;;;;;;;;;;5092596;28;20068;-70
2021/12/01 13:27:07;;;;;;;7.05;3.63;;;;;;;;;;5092683;28;20020;-70
2021/12/01 13:29:35;;;;;;;7.95;4.05;;;;;;;;;;5092616;28;20028;-69
2021/12/01 13:32:01;;;;;;;10.85;4.20;;;;;;;;;;5092585;28;20051;-69
2021/12/01 13:34:33;;;;;;;9.77;4.22;;;;;;;;;;5092528;28;20477;-69
2021/12/01 13:37:05;;;;;;;9.07;4.50;;;;;;;;;;5092493;28;20016;-69
2021/12/01 13:39:36;;;;;;;11.07;5.38;;;;;;;;;;5094175;28;20023;-69
2021/12/01 13:42:06;;;;;;;8.18;4.07;;;;;;;;;;5092479;28;20023;-70
2021/12/01 13:44:39;;;;;;;8.95;5.00;;;;;;;;;;5092385;28;20040;-72
2021/12/01 13:47:09;;;;;;;21.88;8.70;;;;;;;;;;5092380;28;20022;-69
2021/12/01 13:49:37;;;;;;;55.20;18.23;;;;;;;;;;5092433;28;20108;-69
2021/12/01 13:52:03;;;;;;;106.22;33.70;;;;;;;;;;5092367;28;20024;-69
2021/12/01 13:54:29;;;;;;;109.03;33.13;;;;;;;;;;5091963;28;20030;-69
2021/12/01 13:57:00;;;;;;;94.15;29.83;;;;;;;;;;5092231;28;20460;-69
2021/12/01 13:59:47;;;;;;;80.57;25.70;;;;;;;;;;5093873;28;20094;-72
2021/12/01 14:02:20;;;;;;;51.95;16.80;;;;;;;;;;5092116;28;20032;-70
2021/12/01 14:04:46;;;;;;;;;;;;;;;;;;5092259;28;20059;-69
2021/12/01 14:07:15;;;;;;;37.42;13.00;;;;;;;;;;5091856;28;19969;-72
2021/12/01 14:09:43;;;;;;;18.83;7.95;;;;;;;;;;5092092;28;20028;-72
2021/12/01 14:12:10;;;;;;;11.85;5.60;;;;;;;;;;5093542;28;20027;-72
2021/12/01 14:14:36;;;;;;;15.38;6.53;;;;;;;;;;5093237;28;20034;-71
2021/12/01 14:17:04;;;;;;;15.20;6.57;;;;;;;;;;5093519;28;20357;-69
2021/12/01 14:19:31;;;;;;;13.25;6.95;;;;;;;;;;5092036;28;20028;-69
2021/12/01 14:21:58;;;;;;;15.02;6.70;;;;;;;;;;5093230;28;20028;-70
2021/12/01 14:24:26;;;;;;;13.10;6.72;;;;;;;;;;5093215;28;20032;-70
2021/12/01 14:26:57;;;;;;;11.98;6.63;;;;;;;;;;5091846;28;20110;-69
2021/12/01 14:29:23;;;;;;;15.60;6.70;;;;;;;;;;5093182;28;20028;-68
2021/12/01 14:32:04;;;;;;;20.38;7.82;;;;;;;;;;5091857;28;20031;-69
2021/12/01 14:34:33;;;;;;;13.57;6.80;;;;;;;;;;5091913;28;20032;-69
2021/12/01 14:37:00;;;;;;;18.38;8.20;;;;;;;;;;5091833;28;20031;-69
2021/12/01 14:39:26;;;;;;;12.65;7.50;;;;;;;;;;5092391;28;20077;-69
2021/12/01 14:41:55;;;;;;;17.17;8.32;;;;;;;;;;5093286;28;20024;-69
2021/12/01 14:44:27;;;;;;;25.50;10.25;;;;;;;;;;5093064;28;20083;-69
2021/12/01 14:46:58;;;;;;;30.10;12.52;;;;;;;;;;5093077;28;20388;-69
2021/12/01 14:49:34;;;;;;;38.30;17.17;;;;;;;;;;5091850;28;20032;-70
2021/12/01 14:52:00;;;;;;;49.90;19.23;;;;;;;;;;5092654;28;20043;-72